sensor_id;sensor_type;location;lat;lon;timestamp;temperature;humidity
14755;DHT22;7469;50.906;6.952;2024-03-08T00:00:14;5.40;99.90
14755;DHT22;7469;50.906;6.952;2024-03-08T00:02:44;5.40;99.90
14755;DHT22;7469;50.906;6.952;2024-03-08T00:05:13;5.40;99.90
14755;DHT22;7469;50.906;6.952;2024-03-08T00:07:44;5.40;99.90
14755;DHT22;7469;50.906;6.952;2024-03-08T00:10:13;5.40;99.90
14755;DHT22;7469;50.906;6.952;2024-03-08T00:12:43;5.40;99.90
14755;DHT22;7469;50.906;6.952;2024-03-08T00:15:13;5.40;99.90
14755;DHT22;7469;50.906;6.952;2024-03-08T00:17:44;5.40;99.90
14755;DHT22;7469;50.906;6.952;2024-03-08T00:20:13;5.40;99.90
14755;DHT22;7469;50.906;6.952;2024-03-08T00:22:41;5.40;99.90
14755;DHT22;7469;50.906;6.952;2024-03-08T00:25:11;5.40;99.90
14755;DHT22;7469;50.906;6.952;2024-03-08T00:27:39;5.30;99.90
14755;DHT22;7469;50.906;6.952;2024-03-08T00:30:08;5.30;99.90
14755;DHT22;7469;50.906;6.952;2024-03-08T00:32:37;5.30;99.90
14755;DHT22;7469;50.906;6.952;2024-03-08T00:35:06;5.30;99.90
14755;DHT22;7469;50.906;6.952;2024-03-08T00:37:35;5.30;99.90
14755;DHT22;7469;50.906;6.952;2024-03-08T00:40:03;5.30;99.90
14755;DHT22;7469;50.906;6.952;2024-03-08T00:42:35;5.30;99.90
14755;DHT22;7469;50.906;6.952;2024-03-08T00:45:05;5.20;99.90
14755;DHT22;7469;50.906;6.952;2024-03-08T00:47:33;5.20;99.90
14755;DHT22;7469;50.906;6.952;2024-03-08T00:50:01;5.10;99.90
14755;DHT22;7469;50.906;6.952;2024-03-08T00:52:30;5.10;99.90
14755;DHT22;7469;50.906;6.952;2024-03-08T00:54:58;5.10;99.90
14755;DHT22;7469;50.906;6.952;2024-03-08T00:57:26;5.10;99.90
14755;DHT22;7469;50.906;6.952;2024-03-08T00:59:56;5.10;99.90
14755;DHT22;7469;50.906;6.952;2024-03-08T01:02:24;5.10;99.90
14755;DHT22;7469;50.906;6.952;2024-03-08T01:04:52;5.00;99.90
14755;DHT22;7469;50.906;6.952;2024-03-08T01:07:20;4.90;99.90
14755;DHT22;7469;50.906;6.952;2024-03-08T01:09:47;4.90;99.90
14755;DHT22;7469;50.906;6.952;2024-03-08T01:12:15;4.90;99.90
14755;DHT22;7469;50.906;6.952;2024-03-08T01:14:43;4.90;99.90
14755;DHT22;7469;50.906;6.952;2024-03-08T01:17:13;4.90;99.90
14755;DHT22;7469;50.906;6.952;2024-03-08T01:19:41;4.80;99.90
14755;DHT22;7469;50.906;6.952;2024-03-08T01:22:11;4.80;99.90
14755;DHT22;7469;50.906;6.952;2024-03-08T01:24:39;4.80;99.90
14755;DHT22;7469;50.906;6.952;2024-03-08T01:27:07;4.80;99.90
14755;DHT22;7469;50.906;6.952;2024-03-08T01:29:36;4.80;99.90
14755;DHT22;7469;50.906;6.952;2024-03-08T01:32:04;4.80;99.90
14755;DHT22;7469;50.906;6.952;2024-03-08T01:34:34;4.70;99.90
14755;DHT22;7469;50.906;6.952;2024-03-08T01:37:02;4.70;99.90
14755;DHT22;7469;50.906;6.952;2024-03-08T01:39:30;4.70;99.90
14755;DHT22;7469;50.906;6.952;2024-03-08T01:41:59;4.70;99.90
14755;DHT22;7469;50.906;6.952;2024-03-08T01:44:27;4.70;99.90
14755;DHT22;7469;50.906;6.952;2024-03-08T01:46:57;4.70;99.90
14755;DHT22;7469;50.906;6.952;2024-03-08T01:49:26;4.70;99.90
14755;DHT22;7469;50.906;6.952;2024-03-08T01:51:56;4.70;99.90
14755;DHT22;7469;50.906;6.952;2024-03-08T01:54:24;4.60;99.90
14755;DHT22;7469;50.906;6.952;2024-03-08T01:56:52;4.60;99.90
14755;DHT22;7469;50.906;6.952;2024-03-08T01:59:21;4.60;99.90
14755;DHT22;7469;50.906;6.952;2024-03-08T02:01:50;4.60;99.90
14755;DHT22;7469;50.906;6.952;2024-03-08T02:04:18;4.70;99.90
14755;DHT22;7469;50.906;6.952;2024-03-08T02:06:47;4.70;99.90
14755;DHT22;7469;50.906;6.952;2024-03-08T02:09:17;4.70;99.90
14755;DHT22;7469;50.906;6.952;2024-03-08T02:11:45;4.60;99.90
14755;DHT22;7469;50.906;6.952;2024-03-08T02:14:14;4.60;99.90
14755;DHT22;7469;50.906;6.952;2024-03-08T02:16:42;4.60;99.90
14755;DHT22;7469;50.906;6.952;2024-03-08T02:19:10;4.60;99.90
14755;DHT22;7469;50.906;6.952;2024-03-08T02:21:39;4.60;99.90
14755;DHT22;7469;50.906;6.952;2024-03-08T02:24:07;4.60;99.90
14755;DHT22;7469;50.906;6.952;2024-03-08T02:26:35;4.50;99.90
14755;DHT22;7469;50.906;6.952;2024-03-08T02:29:06;4.40;99.90
14755;DHT22;7469;50.906;6.952;2024-03-08T02:31:34;4.30;99.90
14755;DHT22;7469;50.906;6.952;2024-03-08T02:34:02;4.30;99.90
14755;DHT22;7469;50.906;6.952;2024-03-08T02:36:29;4.30;99.90
14755;DHT22;7469;50.906;6.952;2024-03-08T02:39:03;4.30;99.90
14755;DHT22;7469;50.906;6.952;2024-03-08T02:41:32;4.30;99.90
14755;DHT22;7469;50.906;6.952;2024-03-08T02:44:00;4.30;99.90
14755;DHT22;7469;50.906;6.952;2024-03-08T02:46:28;4.30;99.90
14755;DHT22;7469;50.906;6.952;2024-03-08T02:48:56;4.30;99.90
14755;DHT22;7469;50.906;6.952;2024-03-08T02:51:25;4.30;99.90
14755;DHT22;7469;50.906;6.952;2024-03-08T02:53:53;4.30;99.90
14755;DHT22;7469;50.906;6.952;2024-03-08T02:56:22;4.30;99.90
14755;DHT22;7469;50.906;6.952;2024-03-08T02:58:50;4.30;99.90
14755;DHT22;7469;50.906;6.952;2024-03-08T03:01:18;4.30;99.90
14755;DHT22;7469;50.906;6.952;2024-03-08T03:03:47;4.30;99.90
14755;DHT22;7469;50.906;6.952;2024-03-08T03:06:15;4.30;99.90
14755;DHT22;7469;50.906;6.952;2024-03-08T03:08:43;4.30;99.90
14755;DHT22;7469;50.906;6.952;2024-03-08T03:11:12;4.20;99.90
14755;DHT22;7469;50.906;6.952;2024-03-08T03:13:42;4.10;99.90
14755;DHT22;7469;50.906;6.952;2024-03-08T03:16:17;4.10;99.90
14755;DHT22;7469;50.906;6.952;2024-03-08T03:18:46;4.10;99.90
14755;DHT22;7469;50.906;6.952;2024-03-08T03:21:15;4.10;99.90
14755;DHT22;7469;50.906;6.952;2024-03-08T03:23:44;4.10;99.90
14755;DHT22;7469;50.906;6.952;2024-03-08T03:26:12;4.10;99.90
14755;DHT22;7469;50.906;6.952;2024-03-08T03:28:40;4.10;99.90
14755;DHT22;7469;50.906;6.952;2024-03-08T03:31:09;4.10;99.90
14755;DHT22;7469;50.906;6.952;2024-03-08T03:33:40;4.10;99.90
14755;DHT22;7469;50.906;6.952;2024-03-08T03:36:09;4.10;99.90
14755;DHT22;7469;50.906;6.952;2024-03-08T03:38:37;4.00;99.90
14755;DHT22;7469;50.906;6.952;2024-03-08T03:41:05;3.90;99.90
14755;DHT22;7469;50.906;6.952;2024-03-08T03:43:37;3.90;99.90
14755;DHT22;7469;50.906;6.952;2024-03-08T03:46:06;3.90;99.90
14755;DHT22;7469;50.906;6.952;2024-03-08T03:48:36;3.90;99.90
14755;DHT22;7469;50.906;6.952;2024-03-08T03:51:04;3.90;99.90
14755;DHT22;7469;50.906;6.952;2024-03-08T03:53:32;3.90;99.90
14755;DHT22;7469;50.906;6.952;2024-03-08T03:56:00;3.90;99.90
14755;DHT22;7469;50.906;6.952;2024-03-08T03:58:28;3.90;99.90
14755;DHT22;7469;50.906;6.952;2024-03-08T04:00:56;3.90;99.90
14755;DHT22;7469;50.906;6.952;2024-03-08T04:03:24;3.80;99.90
14755;DHT22;7469;50.906;6.952;2024-03-08T04:05:53;3.80;99.90
14755;DHT22;7469;50.906;6.952;2024-03-08T04:08:21;3.80;99.90
14755;DHT22;7469;50.906;6.952;2024-03-08T04:10:50;3.80;99.90
14755;DHT22;7469;50.906;6.952;2024-03-08T04:13:19;3.90;99.90
14755;DHT22;7469;50.906;6.952;2024-03-08T04:15:47;3.90;99.90
14755;DHT22;7469;50.906;6.952;2024-03-08T04:18:16;3.90;99.90
14755;DHT22;7469;50.906;6.952;2024-03-08T04:20:45;3.90;99.90
14755;DHT22;7469;50.906;6.952;2024-03-08T04:23:16;3.80;99.90
14755;DHT22;7469;50.906;6.952;2024-03-08T04:25:44;3.80;99.90
14755;DHT22;7469;50.906;6.952;2024-03-08T04:28:13;3.80;99.90
14755;DHT22;7469;50.906;6.952;2024-03-08T04:30:40;3.80;99.90
14755;DHT22;7469;50.906;6.952;2024-03-08T04:33:10;3.80;99.90
14755;DHT22;7469;50.906;6.952;2024-03-08T04:35:38;3.80;99.90
14755;DHT22;7469;50.906;6.952;2024-03-08T04:38:06;3.80;99.90
14755;DHT22;7469;50.906;6.952;2024-03-08T04:40:35;3.80;99.90
14755;DHT22;7469;50.906;6.952;2024-03-08T04:43:03;3.90;99.90
14755;DHT22;7469;50.906;6.952;2024-03-08T04:45:31;3.90;99.90
14755;DHT22;7469;50.906;6.952;2024-03-08T04:48:00;3.90;99.90
14755;DHT22;7469;50.906;6.952;2024-03-08T04:50:28;3.90;99.90
14755;DHT22;7469;50.906;6.952;2024-03-08T04:52:56;3.80;99.90
14755;DHT22;7469;50.906;6.952;2024-03-08T04:55:24;3.80;99.90
14755;DHT22;7469;50.906;6.952;2024-03-08T04:57:54;3.80;99.90
14755;DHT22;7469;50.906;6.952;2024-03-08T05:00:22;3.80;99.90
14755;DHT22;7469;50.906;6.952;2024-03-08T05:02:49;3.70;99.90
14755;DHT22;7469;50.906;6.952;2024-03-08T05:05:20;3.70;99.90
14755;DHT22;7469;50.906;6.952;2024-03-08T05:07:49;3.60;99.90
14755;DHT22;7469;50.906;6.952;2024-03-08T05:10:18;3.60;99.90
14755;DHT22;7469;50.906;6.952;2024-03-08T05:12:46;3.50;99.90
14755;DHT22;7469;50.906;6.952;2024-03-08T05:15:15;3.50;99.90
14755;DHT22;7469;50.906;6.952;2024-03-08T05:17:43;3.50;99.90
14755;DHT22;7469;50.906;6.952;2024-03-08T05:20:11;3.40;99.90
14755;DHT22;7469;50.906;6.952;2024-03-08T05:22:40;3.40;99.90
14755;DHT22;7469;50.906;6.952;2024-03-08T05:25:08;3.30;99.90
14755;DHT22;7469;50.906;6.952;2024-03-08T05:27:37;3.30;99.90
14755;DHT22;7469;50.906;6.952;2024-03-08T05:30:05;3.30;99.90
14755;DHT22;7469;50.906;6.952;2024-03-08T05:32:35;3.20;99.90
14755;DHT22;7469;50.906;6.952;2024-03-08T05:35:04;3.20;99.90
14755;DHT22;7469;50.906;6.952;2024-03-08T05:37:33;3.20;99.90
14755;DHT22;7469;50.906;6.952;2024-03-08T05:40:02;3.10;99.90
14755;DHT22;7469;50.906;6.952;2024-03-08T05:42:41;3.10;99.90
14755;DHT22;7469;50.906;6.952;2024-03-08T05:45:09;3.20;99.90
14755;DHT22;7469;50.906;6.952;2024-03-08T05:47:40;3.20;99.90
14755;DHT22;7469;50.906;6.952;2024-03-08T05:50:09;3.30;99.90
14755;DHT22;7469;50.906;6.952;2024-03-08T05:52:38;3.30;99.90
14755;DHT22;7469;50.906;6.952;2024-03-08T05:55:07;3.40;99.90
14755;DHT22;7469;50.906;6.952;2024-03-08T05:57:37;3.40;99.90
14755;DHT22;7469;50.906;6.952;2024-03-08T06:00:07;3.40;99.90
14755;DHT22;7469;50.906;6.952;2024-03-08T06:02:38;3.40;99.90
14755;DHT22;7469;50.906;6.952;2024-03-08T06:05:10;3.40;99.90
14755;DHT22;7469;50.906;6.952;2024-03-08T06:07:38;3.40;99.90
14755;DHT22;7469;50.906;6.952;2024-03-08T06:10:08;3.30;99.90
14755;DHT22;7469;50.906;6.952;2024-03-08T06:12:37;3.30;99.90
14755;DHT22;7469;50.906;6.952;2024-03-08T06:15:09;3.20;99.90
14755;DHT22;7469;50.906;6.952;2024-03-08T06:17:41;3.10;99.90
14755;DHT22;7469;50.906;6.952;2024-03-08T06:20:11;3.10;99.90
14755;DHT22;7469;50.906;6.952;2024-03-08T06:22:40;3.10;99.90
14755;DHT22;7469;50.906;6.952;2024-03-08T06:25:08;3.10;99.90
14755;DHT22;7469;50.906;6.952;2024-03-08T06:27:38;3.10;99.90
14755;DHT22;7469;50.906;6.952;2024-03-08T06:30:07;3.10;99.90
14755;DHT22;7469;50.906;6.952;2024-03-08T06:32:36;3.10;99.90
14755;DHT22;7469;50.906;6.952;2024-03-08T06:35:05;3.20;99.90
14755;DHT22;7469;50.906;6.952;2024-03-08T06:37:36;3.20;99.90
14755;DHT22;7469;50.906;6.952;2024-03-08T06:40:05;3.20;99.90
14755;DHT22;7469;50.906;6.952;2024-03-08T06:42:34;3.20;99.90
14755;DHT22;7469;50.906;6.952;2024-03-08T06:45:03;3.20;99.90
14755;DHT22;7469;50.906;6.952;2024-03-08T06:47:32;3.20;99.90
14755;DHT22;7469;50.906;6.952;2024-03-08T06:50:01;3.20;99.90
14755;DHT22;7469;50.906;6.952;2024-03-08T06:52:29;3.30;99.90
14755;DHT22;7469;50.906;6.952;2024-03-08T06:54:58;3.30;99.90
14755;DHT22;7469;50.906;6.952;2024-03-08T06:57:28;3.40;99.90
14755;DHT22;7469;50.906;6.952;2024-03-08T06:59:57;3.40;99.90
14755;DHT22;7469;50.906;6.952;2024-03-08T07:02:25;3.50;99.90
14755;DHT22;7469;50.906;6.952;2024-03-08T07:04:54;3.60;99.90
14755;DHT22;7469;50.906;6.952;2024-03-08T07:07:22;3.60;99.90
14755;DHT22;7469;50.906;6.952;2024-03-08T07:09:51;3.60;99.90
14755;DHT22;7469;50.906;6.952;2024-03-08T07:12:20;3.60;99.90
14755;DHT22;7469;50.906;6.952;2024-03-08T07:14:49;3.60;99.90
14755;DHT22;7469;50.906;6.952;2024-03-08T07:17:18;3.60;99.90
14755;DHT22;7469;50.906;6.952;2024-03-08T07:19:45;3.70;99.90
14755;DHT22;7469;50.906;6.952;2024-03-08T07:22:14;3.80;99.90
14755;DHT22;7469;50.906;6.952;2024-03-08T07:24:42;3.80;99.90
14755;DHT22;7469;50.906;6.952;2024-03-08T07:27:32;3.90;99.90
14755;DHT22;7469;50.906;6.952;2024-03-08T07:30:01;4.00;99.90
14755;DHT22;7469;50.906;6.952;2024-03-08T07:32:31;4.00;99.90
14755;DHT22;7469;50.906;6.952;2024-03-08T07:35:01;4.00;99.90
14755;DHT22;7469;50.906;6.952;2024-03-08T07:37:30;4.00;99.90
14755;DHT22;7469;50.906;6.952;2024-03-08T07:39:59;4.10;99.90
14755;DHT22;7469;50.906;6.952;2024-03-08T07:42:27;4.10;99.90
14755;DHT22;7469;50.906;6.952;2024-03-08T07:44:57;4.20;99.90
14755;DHT22;7469;50.906;6.952;2024-03-08T07:47:26;4.20;99.90
14755;DHT22;7469;50.906;6.952;2024-03-08T07:49:54;4.30;99.90
14755;DHT22;7469;50.906;6.952;2024-03-08T07:52:22;4.40;99.90
14755;DHT22;7469;50.906;6.952;2024-03-08T07:54:50;4.40;99.90
14755;DHT22;7469;50.906;6.952;2024-03-08T07:57:18;4.50;99.90
14755;DHT22;7469;50.906;6.952;2024-03-08T07:59:47;4.50;99.90
14755;DHT22;7469;50.906;6.952;2024-03-08T08:02:17;4.50;99.90
14755;DHT22;7469;50.906;6.952;2024-03-08T08:04:45;4.60;99.90
14755;DHT22;7469;50.906;6.952;2024-03-08T08:07:13;4.80;99.90
14755;DHT22;7469;50.906;6.952;2024-03-08T08:09:41;4.80;99.90
14755;DHT22;7469;50.906;6.952;2024-03-08T08:12:09;4.90;99.90
14755;DHT22;7469;50.906;6.952;2024-03-08T08:14:38;5.10;99.90
14755;DHT22;7469;50.906;6.952;2024-03-08T08:17:07;5.20;99.90
14755;DHT22;7469;50.906;6.952;2024-03-08T08:19:37;5.20;99.90
14755;DHT22;7469;50.906;6.952;2024-03-08T08:22:05;5.30;99.90
14755;DHT22;7469;50.906;6.952;2024-03-08T08:24:35;5.40;99.90
14755;DHT22;7469;50.906;6.952;2024-03-08T08:27:04;5.50;99.90
14755;DHT22;7469;50.906;6.952;2024-03-08T08:29:33;5.60;99.90
14755;DHT22;7469;50.906;6.952;2024-03-08T08:32:02;5.70;99.90
14755;DHT22;7469;50.906;6.952;2024-03-08T08:34:30;5.70;99.90
14755;DHT22;7469;50.906;6.952;2024-03-08T08:36:59;5.90;99.90
14755;DHT22;7469;50.906;6.952;2024-03-08T08:39:28;5.90;99.90
14755;DHT22;7469;50.906;6.952;2024-03-08T08:41:56;6.00;99.90
14755;DHT22;7469;50.906;6.952;2024-03-08T08:44:24;6.10;99.90
14755;DHT22;7469;50.906;6.952;2024-03-08T08:46:52;6.20;99.90
14755;DHT22;7469;50.906;6.952;2024-03-08T08:49:31;6.30;99.90
14755;DHT22;7469;50.906;6.952;2024-03-08T08:52:01;6.40;99.90
14755;DHT22;7469;50.906;6.952;2024-03-08T08:54:41;6.50;99.90
14755;DHT22;7469;50.906;6.952;2024-03-08T08:57:09;6.60;99.90
14755;DHT22;7469;50.906;6.952;2024-03-08T08:59:37;6.70;99.90
14755;DHT22;7469;50.906;6.952;2024-03-08T09:02:06;6.80;99.90
14755;DHT22;7469;50.906;6.952;2024-03-08T09:04:36;7.00;99.90
14755;DHT22;7469;50.906;6.952;2024-03-08T09:07:05;7.10;99.90
14755;DHT22;7469;50.906;6.952;2024-03-08T09:09:33;7.20;99.90
14755;DHT22;7469;50.906;6.952;2024-03-08T09:12:01;7.40;99.90
14755;DHT22;7469;50.906;6.952;2024-03-08T09:14:30;7.40;99.90
14755;DHT22;7469;50.906;6.952;2024-03-08T09:16:58;7.50;99.90
14755;DHT22;7469;50.906;6.952;2024-03-08T09:19:26;7.60;99.90
14755;DHT22;7469;50.906;6.952;2024-03-08T09:21:55;7.70;99.90
14755;DHT22;7469;50.906;6.952;2024-03-08T09:24:24;7.80;99.90
14755;DHT22;7469;50.906;6.952;2024-03-08T09:26:52;8.00;99.90
14755;DHT22;7469;50.906;6.952;2024-03-08T09:29:20;8.20;99.90
14755;DHT22;7469;50.906;6.952;2024-03-08T09:31:48;8.40;99.90
14755;DHT22;7469;50.906;6.952;2024-03-08T09:34:16;8.50;99.90
14755;DHT22;7469;50.906;6.952;2024-03-08T09:36:51;8.70;99.90
14755;DHT22;7469;50.906;6.952;2024-03-08T09:39:19;9.00;99.90
14755;DHT22;7469;50.906;6.952;2024-03-08T09:41:50;9.30;99.90
14755;DHT22;7469;50.906;6.952;2024-03-08T09:44:18;9.70;99.90
14755;DHT22;7469;50.906;6.952;2024-03-08T09:46:46;10.20;99.90
14755;DHT22;7469;50.906;6.952;2024-03-08T09:49:15;11.10;99.90
14755;DHT22;7469;50.906;6.952;2024-03-08T09:51:44;11.90;97.80
14755;DHT22;7469;50.906;6.952;2024-03-08T09:54:13;12.30;95.10
14755;DHT22;7469;50.906;6.952;2024-03-08T09:56:51;13.00;92.70
14755;DHT22;7469;50.906;6.952;2024-03-08T09:59:20;13.60;89.00
14755;DHT22;7469;50.906;6.952;2024-03-08T10:02:13;13.90;81.30
14755;DHT22;7469;50.906;6.952;2024-03-08T10:04:43;14.10;75.40
14755;DHT22;7469;50.906;6.952;2024-03-08T10:07:13;13.80;71.60
14755;DHT22;7469;50.906;6.952;2024-03-08T10:09:41;13.70;70.90
14755;DHT22;7469;50.906;6.952;2024-03-08T10:12:16;13.70;69.20
14755;DHT22;7469;50.906;6.952;2024-03-08T10:14:44;13.70;67.20
14755;DHT22;7469;50.906;6.952;2024-03-08T10:17:12;13.80;65.90
14755;DHT22;7469;50.906;6.952;2024-03-08T10:19:49;13.60;63.80
14755;DHT22;7469;50.906;6.952;2024-03-08T10:22:18;13.70;63.90
14755;DHT22;7469;50.906;6.952;2024-03-08T10:24:46;13.70;62.50
14755;DHT22;7469;50.906;6.952;2024-03-08T10:27:17;13.60;61.40
14755;DHT22;7469;50.906;6.952;2024-03-08T10:29:47;14.30;61.60
14755;DHT22;7469;50.906;6.952;2024-03-08T10:32:15;14.60;58.30
14755;DHT22;7469;50.906;6.952;2024-03-08T10:34:43;14.90;57.90
14755;DHT22;7469;50.906;6.952;2024-03-08T10:37:15;15.00;55.40
14755;DHT22;7469;50.906;6.952;2024-03-08T10:39:51;14.80;54.50
14755;DHT22;7469;50.906;6.952;2024-03-08T10:42:25;14.80;54.70
14755;DHT22;7469;50.906;6.952;2024-03-08T10:45:03;15.00;53.70
14755;DHT22;7469;50.906;6.952;2024-03-08T10:47:38;15.20;52.90
14755;DHT22;7469;50.906;6.952;2024-03-08T10:50:11;15.20;51.20
14755;DHT22;7469;50.906;6.952;2024-03-08T10:52:43;15.10;51.10
14755;DHT22;7469;50.906;6.952;2024-03-08T10:55:12;15.30;50.10
14755;DHT22;7469;50.906;6.952;2024-03-08T10:57:43;15.20;49.30
14755;DHT22;7469;50.906;6.952;2024-03-08T11:00:12;14.80;49.20
14755;DHT22;7469;50.906;6.952;2024-03-08T11:02:43;15.00;49.50
14755;DHT22;7469;50.906;6.952;2024-03-08T11:05:30;15.40;48.80
14755;DHT22;7469;50.906;6.952;2024-03-08T11:08:00;15.50;48.70
14755;DHT22;7469;50.906;6.952;2024-03-08T11:10:28;15.50;47.40
14755;DHT22;7469;50.906;6.952;2024-03-08T11:12:58;15.80;47.10
14755;DHT22;7469;50.906;6.952;2024-03-08T11:15:26;15.40;46.50
14755;DHT22;7469;50.906;6.952;2024-03-08T11:17:58;15.50;46.80
14755;DHT22;7469;50.906;6.952;2024-03-08T11:20:27;15.20;45.90
14755;DHT22;7469;50.906;6.952;2024-03-08T11:23:00;15.20;45.40
14755;DHT22;7469;50.906;6.952;2024-03-08T11:25:37;15.00;45.40
14755;DHT22;7469;50.906;6.952;2024-03-08T11:28:12;14.70;46.10
14755;DHT22;7469;50.906;6.952;2024-03-08T11:31:22;14.70;45.80
14755;DHT22;7469;50.906;6.952;2024-03-08T11:33:51;14.60;46.80
14755;DHT22;7469;50.906;6.952;2024-03-08T11:36:21;14.40;46.70
14755;DHT22;7469;50.906;6.952;2024-03-08T11:38:50;14.10;47.00
14755;DHT22;7469;50.906;6.952;2024-03-08T11:41:20;13.90;47.80
14755;DHT22;7469;50.906;6.952;2024-03-08T11:44:03;14.00;48.00
14755;DHT22;7469;50.906;6.952;2024-03-08T11:46:33;13.70;48.00
14755;DHT22;7469;50.906;6.952;2024-03-08T11:49:01;13.50;48.90
14755;DHT22;7469;50.906;6.952;2024-03-08T11:51:30;13.40;49.00
14755;DHT22;7469;50.906;6.952;2024-03-08T11:53:59;13.40;48.70
14755;DHT22;7469;50.906;6.952;2024-03-08T11:56:27;13.00;48.60
14755;DHT22;7469;50.906;6.952;2024-03-08T11:58:57;12.90;49.50
14755;DHT22;7469;50.906;6.952;2024-03-08T12:01:26;13.10;49.60
14755;DHT22;7469;50.906;6.952;2024-03-08T12:03:54;12.80;49.60
14755;DHT22;7469;50.906;6.952;2024-03-08T12:06:25;12.40;50.50
14755;DHT22;7469;50.906;6.952;2024-03-08T12:08:53;12.20;51.20
14755;DHT22;7469;50.906;6.952;2024-03-08T12:11:22;12.20;51.70
14755;DHT22;7469;50.906;6.952;2024-03-08T12:13:52;12.30;52.00
14755;DHT22;7469;50.906;6.952;2024-03-08T12:16:23;12.30;51.30
14755;DHT22;7469;50.906;6.952;2024-03-08T12:18:52;12.20;51.30
14755;DHT22;7469;50.906;6.952;2024-03-08T12:21:20;12.20;51.30
14755;DHT22;7469;50.906;6.952;2024-03-08T12:24:02;12.10;51.80
14755;DHT22;7469;50.906;6.952;2024-03-08T12:26:31;11.80;51.50
14755;DHT22;7469;50.906;6.952;2024-03-08T12:29:16;11.70;52.40
14755;DHT22;7469;50.906;6.952;2024-03-08T12:31:49;11.60;52.90
14755;DHT22;7469;50.906;6.952;2024-03-08T12:34:18;11.60;53.20
14755;DHT22;7469;50.906;6.952;2024-03-08T12:36:47;11.50;52.50
14755;DHT22;7469;50.906;6.952;2024-03-08T12:39:19;11.40;52.90
14755;DHT22;7469;50.906;6.952;2024-03-08T12:41:53;11.30;53.60
14755;DHT22;7469;50.906;6.952;2024-03-08T12:44:23;11.20;54.30
14755;DHT22;7469;50.906;6.952;2024-03-08T12:46:53;11.30;54.50
14755;DHT22;7469;50.906;6.952;2024-03-08T12:49:22;11.30;54.20
14755;DHT22;7469;50.906;6.952;2024-03-08T12:51:50;11.40;54.70
14755;DHT22;7469;50.906;6.952;2024-03-08T12:54:19;11.40;54.30
14755;DHT22;7469;50.906;6.952;2024-03-08T12:56:50;11.40;55.10
14755;DHT22;7469;50.906;6.952;2024-03-08T13:01:07;11.60;54.10
14755;DHT22;7469;50.906;6.952;2024-03-08T13:03:35;11.50;53.60
14755;DHT22;7469;50.906;6.952;2024-03-08T13:06:04;11.60;54.20
14755;DHT22;7469;50.906;6.952;2024-03-08T13:08:35;11.70;53.80
14755;DHT22;7469;50.906;6.952;2024-03-08T13:11:05;11.80;53.60
14755;DHT22;7469;50.906;6.952;2024-03-08T13:13:35;11.80;53.20
14755;DHT22;7469;50.906;6.952;2024-03-08T13:16:07;11.90;52.60
14755;DHT22;7469;50.906;6.952;2024-03-08T13:18:35;12.00;52.50
14755;DHT22;7469;50.906;6.952;2024-03-08T13:21:04;12.00;52.20
14755;DHT22;7469;50.906;6.952;2024-03-08T13:23:35;12.00;52.50
14755;DHT22;7469;50.906;6.952;2024-03-08T13:26:06;12.10;52.60
14755;DHT22;7469;50.906;6.952;2024-03-08T13:28:34;12.20;52.50
14755;DHT22;7469;50.906;6.952;2024-03-08T13:31:04;12.20;52.30
14755;DHT22;7469;50.906;6.952;2024-03-08T13:33:35;12.30;52.10
14755;DHT22;7469;50.906;6.952;2024-03-08T13:36:04;12.40;51.40
14755;DHT22;7469;50.906;6.952;2024-03-08T13:38:36;12.40;51.80
14755;DHT22;7469;50.906;6.952;2024-03-08T13:41:04;12.40;51.00
14755;DHT22;7469;50.906;6.952;2024-03-08T13:43:32;12.60;51.00
14755;DHT22;7469;50.906;6.952;2024-03-08T13:46:04;12.70;50.40
14755;DHT22;7469;50.906;6.952;2024-03-08T13:48:35;12.80;50.70
14755;DHT22;7469;50.906;6.952;2024-03-08T13:51:04;12.90;50.40
14755;DHT22;7469;50.906;6.952;2024-03-08T13:53:34;13.00;50.10
14755;DHT22;7469;50.906;6.952;2024-03-08T13:56:03;13.20;49.90
14755;DHT22;7469;50.906;6.952;2024-03-08T13:58:32;13.30;49.10
14755;DHT22;7469;50.906;6.952;2024-03-08T14:01:02;13.40;48.60
14755;DHT22;7469;50.906;6.952;2024-03-08T14:03:34;13.50;48.30
14755;DHT22;7469;50.906;6.952;2024-03-08T14:06:03;13.50;48.00
14755;DHT22;7469;50.906;6.952;2024-03-08T14:08:31;13.70;47.70
14755;DHT22;7469;50.906;6.952;2024-03-08T14:11:00;13.70;46.90
14755;DHT22;7469;50.906;6.952;2024-03-08T14:13:41;13.40;46.70
14755;DHT22;7469;50.906;6.952;2024-03-08T14:16:11;13.30;47.40
14755;DHT22;7469;50.906;6.952;2024-03-08T14:18:41;13.30;47.30
14755;DHT22;7469;50.906;6.952;2024-03-08T14:21:09;13.30;47.40
14755;DHT22;7469;50.906;6.952;2024-03-08T14:23:40;13.50;47.60
14755;DHT22;7469;50.906;6.952;2024-03-08T14:26:08;13.70;47.50
14755;DHT22;7469;50.906;6.952;2024-03-08T14:28:36;13.80;47.10
14755;DHT22;7469;50.906;6.952;2024-03-08T14:31:05;13.90;46.90
14755;DHT22;7469;50.906;6.952;2024-03-08T14:33:38;14.00;46.30
14755;DHT22;7469;50.906;6.952;2024-03-08T14:36:08;14.10;45.90
14755;DHT22;7469;50.906;6.952;2024-03-08T14:38:40;14.10;45.80
14755;DHT22;7469;50.906;6.952;2024-03-08T14:41:08;14.10;45.20
14755;DHT22;7469;50.906;6.952;2024-03-08T14:43:36;13.80;45.00
14755;DHT22;7469;50.906;6.952;2024-03-08T14:46:04;13.70;45.30
14755;DHT22;7469;50.906;6.952;2024-03-08T14:48:32;13.60;45.60
14755;DHT22;7469;50.906;6.952;2024-03-08T14:51:03;13.50;45.70
14755;DHT22;7469;50.906;6.952;2024-03-08T14:53:33;13.40;46.20
14755;DHT22;7469;50.906;6.952;2024-03-08T14:56:00;13.40;46.60
14755;DHT22;7469;50.906;6.952;2024-03-08T14:58:29;13.40;47.00
14755;DHT22;7469;50.906;6.952;2024-03-08T15:00:56;13.50;47.10
14755;DHT22;7469;50.906;6.952;2024-03-08T15:03:27;13.50;47.00
14755;DHT22;7469;50.906;6.952;2024-03-08T15:05:55;13.40;46.40
14755;DHT22;7469;50.906;6.952;2024-03-08T15:08:23;13.30;46.60
14755;DHT22;7469;50.906;6.952;2024-03-08T15:10:53;13.20;47.20
14755;DHT22;7469;50.906;6.952;2024-03-08T15:13:22;13.20;47.60
14755;DHT22;7469;50.906;6.952;2024-03-08T15:16:00;13.30;47.60
14755;DHT22;7469;50.906;6.952;2024-03-08T15:18:33;13.20;47.40
14755;DHT22;7469;50.906;6.952;2024-03-08T15:21:03;13.30;47.50
14755;DHT22;7469;50.906;6.952;2024-03-08T15:23:34;13.40;47.40
14755;DHT22;7469;50.906;6.952;2024-03-08T15:26:04;13.50;47.30
14755;DHT22;7469;50.906;6.952;2024-03-08T15:28:34;13.60;47.30
14755;DHT22;7469;50.906;6.952;2024-03-08T15:31:04;13.40;46.80
14755;DHT22;7469;50.906;6.952;2024-03-08T15:33:36;13.20;46.90
14755;DHT22;7469;50.906;6.952;2024-03-08T15:36:10;13.10;47.20
14755;DHT22;7469;50.906;6.952;2024-03-08T15:38:40;12.90;47.10
14755;DHT22;7469;50.906;6.952;2024-03-08T15:41:11;12.80;47.70
14755;DHT22;7469;50.906;6.952;2024-03-08T15:43:40;12.70;47.60
14755;DHT22;7469;50.906;6.952;2024-03-08T15:46:09;12.50;47.70
14755;DHT22;7469;50.906;6.952;2024-03-08T15:48:38;12.40;48.20
14755;DHT22;7469;50.906;6.952;2024-03-08T15:51:07;12.40;48.20
14755;DHT22;7469;50.906;6.952;2024-03-08T15:53:37;12.30;48.60
14755;DHT22;7469;50.906;6.952;2024-03-08T15:56:05;12.20;48.70
14755;DHT22;7469;50.906;6.952;2024-03-08T15:58:36;12.10;48.80
14755;DHT22;7469;50.906;6.952;2024-03-08T16:01:05;12.10;49.20
14755;DHT22;7469;50.906;6.952;2024-03-08T16:03:34;12.10;49.70
14755;DHT22;7469;50.906;6.952;2024-03-08T16:06:02;12.10;50.20
14755;DHT22;7469;50.906;6.952;2024-03-08T16:08:31;12.00;50.70
14755;DHT22;7469;50.906;6.952;2024-03-08T16:11:03;12.00;51.30